createdAt,value
2022-08-09T00:01:04.723Z,101124.50
2022-08-09T00:04:00.424Z,101125.00
2022-08-09T00:06:23.645Z,101124.56
2022-08-09T00:08:49.981Z,101124.06
2022-08-09T00:11:24.994Z,101125.66
2022-08-09T00:13:51.648Z,101120.81
2022-08-09T00:16:26.021Z,101122.88
2022-08-09T00:19:02.475Z,101115.88
2022-08-09T00:21:35.427Z,101108.38
2022-08-09T00:24:01.603Z,101118.22
2022-08-09T00:26:29.596Z,101116.66
2022-08-09T00:28:58.756Z,101119.38
2022-08-09T00:31:57.031Z,101118.69
2022-08-09T00:34:12.237Z,101115.16
2022-08-09T00:36:40.005Z,101118.06
2022-08-09T00:39:10.925Z,101119.00
2022-08-09T00:44:15.997Z,101122.88
2022-08-09T00:44:40.177Z,101120.34
2022-08-09T00:47:07.578Z,101119.50
2022-08-09T00:49:33.754Z,101118.34
2022-08-09T00:52:02.119Z,101117.59
2022-08-09T00:54:36.288Z,101121.13
2022-08-09T00:57:02.795Z,101127.25
2022-08-09T00:59:41.638Z,101126.97
2022-08-09T01:02:12.942Z,101132.03
2022-08-09T01:04:39.277Z,101123.75
2022-08-09T01:07:13.857Z,101125.75
2022-08-09T01:09:40.273Z,101136.53
2022-08-09T01:12:06.433Z,101128.00
2022-08-09T01:14:34.887Z,101139.81
2022-08-09T01:17:01.062Z,101129.00
2022-08-09T01:19:39.593Z,101139.94
2022-08-09T01:22:10.281Z,101138.81
2022-08-09T01:24:39.136Z,101137.34
2022-08-09T01:27:05.403Z,101135.94
2022-08-09T01:29:54.851Z,101136.59
2022-08-09T01:32:39.187Z,101143.47
2022-08-09T01:35:06.935Z,101137.88
2022-08-09T01:38:07.907Z,101154.00
2022-08-09T01:40:30.599Z,101156.31
2022-08-09T01:42:57.786Z,101148.53
2022-08-09T01:45:24.080Z,101151.13
2022-08-09T01:47:50.307Z,101152.16
2022-08-09T01:50:17.786Z,101149.91
2022-08-09T01:52:56.221Z,101153.09
2022-08-09T01:55:22.471Z,101146.06
2022-08-09T01:57:52.943Z,101145.00
2022-08-09T02:00:35.705Z,101149.44
2022-08-09T02:03:02.520Z,101151.63
2022-08-09T02:05:38.061Z,101154.16
2022-08-09T02:08:35.516Z,101150.59
2022-08-09T02:11:01.168Z,101160.72
2022-08-09T02:13:37.264Z,101157.34
2022-08-09T02:16:04.025Z,101163.13
2022-08-09T02:18:31.111Z,101170.19
2022-08-09T02:20:57.305Z,101169.25
2022-08-09T02:23:26.371Z,101170.41
2022-08-09T02:25:58.275Z,101164.66
2022-08-09T02:28:26.244Z,101168.09
2022-08-09T02:30:53.530Z,101166.75
2022-08-09T02:33:20.269Z,101170.34
2022-08-09T02:36:03.407Z,101179.56
2022-08-09T02:38:30.484Z,101179.22
2022-08-09T02:40:56.736Z,101182.03
2022-08-09T02:43:23.441Z,101186.09
2022-08-09T02:45:55.024Z,101181.31
2022-08-09T02:48:31.205Z,101179.31
2022-08-09T02:50:57.930Z,101175.66
2022-08-09T02:53:26.623Z,101177.91
2022-08-09T02:55:58.274Z,101179.78
2022-08-09T02:58:32.325Z,101185.59
2022-08-09T03:00:59.674Z,101182.78
2022-08-09T03:04:12.612Z,101182.78
2022-08-09T03:06:17.033Z,101179.97
2022-08-09T03:08:43.395Z,101187.09
2022-08-09T03:11:10.396Z,101187.75
2022-08-09T03:13:43.783Z,101181.06
2022-08-09T03:16:22.957Z,101181.31
2022-08-09T03:18:52.967Z,101179.88
2022-08-09T03:21:25.891Z,101198.66
2022-08-09T03:24:03.794Z,101182.84
2022-08-09T03:26:32.178Z,101192.16
2022-08-09T03:28:58.577Z,101192.50
2022-08-09T03:31:24.811Z,101191.94
2022-08-09T03:33:54.153Z,101193.03
2022-08-09T03:36:21.262Z,101199.50
2022-08-09T03:38:54.104Z,101198.44
2022-08-09T03:41:20.314Z,101195.91
2022-08-09T03:44:07.901Z,101200.47
2022-08-09T03:46:34.834Z,101206.25
2022-08-09T03:49:04.144Z,101201.44
2022-08-09T03:51:43.974Z,101209.47
2022-08-09T03:54:30.008Z,101209.81
2022-08-09T03:56:57.795Z,101211.94
2022-08-09T03:59:27.274Z,101214.22
2022-08-09T04:02:09.155Z,101223.19
2022-08-09T04:04:36.206Z,101226.00
2022-08-09T04:07:05.243Z,101229.91
2022-08-09T04:09:44.431Z,101229.72
2022-08-09T04:12:30.930Z,101234.97
2022-08-09T04:15:01.464Z,101231.78
2022-08-09T04:17:29.551Z,101228.25
2022-08-09T04:19:56.308Z,101236.69
2022-08-09T04:22:22.633Z,101245.97
2022-08-09T04:24:48.789Z,101239.34
2022-08-09T04:27:14.941Z,101241.00
2022-08-09T04:29:49.825Z,101241.19
2022-08-09T04:32:16.535Z,101246.56
2022-08-09T04:34:54.463Z,101248.50
2022-08-09T04:37:23.712Z,101253.94
2022-08-09T04:40:09.873Z,101259.72
2022-08-09T04:42:36.114Z,101255.38
2022-08-09T04:45:03.657Z,101259.81
2022-08-09T04:47:44.987Z,101259.72
2022-08-09T04:50:11.539Z,101260.25
2022-08-09T04:52:37.825Z,101268.50
2022-08-09T04:55:08.007Z,101281.34
2022-08-09T04:57:59.195Z,101278.28
2022-08-09T05:00:25.075Z,101282.19
2022-08-09T05:02:58.145Z,101285.59
2022-08-09T05:05:51.928Z,101285.59
2022-08-09T05:08:18.990Z,101291.28
2022-08-09T05:10:45.140Z,101290.34
2022-08-09T05:13:11.292Z,101296.09
2022-08-09T05:15:39.172Z,101287.13
2022-08-09T05:18:39.967Z,101293.06
2022-08-09T05:20:59.982Z,101295.09
2022-08-09T05:23:56.998Z,101310.38
2022-08-09T05:26:29.712Z,101309.44
2022-08-09T05:28:58.487Z,101308.50
2022-08-09T05:31:39.817Z,101314.13
2022-08-09T05:34:16.957Z,101307.34
2022-08-09T05:36:43.856Z,101300.59
2022-08-09T05:39:13.165Z,101306.28
2022-08-09T05:41:39.376Z,101298.75
2022-08-09T05:44:06.589Z,101305.31
2022-08-09T05:46:35.047Z,101297.72
2022-08-09T05:49:01.242Z,101305.59
2022-08-09T05:51:42.547Z,101300.06
2022-08-09T05:54:12.555Z,101303.50
2022-08-09T05:56:38.749Z,101307.47
2022-08-09T05:59:21.610Z,101309.44
2022-08-09T06:01:51.681Z,101305.22
2022-08-09T06:04:25.066Z,101302.28
2022-08-09T06:07:01.316Z,101300.88
2022-08-09T06:10:02.123Z,101302.25
2022-08-09T06:12:13.624Z,101302.00
2022-08-09T06:14:39.806Z,101310.34
2022-08-09T06:17:09.752Z,101309.63
2022-08-09T06:19:36.520Z,101313.97
2022-08-09T06:22:04.287Z,101314.72
2022-08-09T06:27:21.440Z,101316.91
2022-08-09T06:30:04.255Z,101321.63
2022-08-09T06:32:59.952Z,101327.78
2022-08-09T06:35:17.048Z,101321.72
2022-08-09T06:37:52.734Z,101328.97
2022-08-09T06:40:30.052Z,101323.91
2022-08-09T06:42:59.609Z,101320.88
2022-08-09T06:46:07.039Z,101325.38
2022-08-09T06:48:16.688Z,101327.03
2022-08-09T06:50:52.446Z,101329.06
2022-08-09T06:53:19.028Z,101325.94
2022-08-09T06:55:48.294Z,101329.91
2022-08-09T07:00:49.403Z,101337.00
2022-08-09T07:01:02.639Z,101331.84
2022-08-09T07:03:30.845Z,101335.09
2022-08-09T07:06:03.978Z,101331.19
2022-08-09T07:08:31.421Z,101328.81
2022-08-09T07:10:57.569Z,101335.81
2022-08-09T07:13:27.934Z,101340.06
2022-08-09T07:16:43.461Z,101333.63
2022-08-09T07:18:41.916Z,101337.28
2022-08-09T07:21:09.168Z,101332.75
2022-08-09T07:23:36.581Z,101329.41
2022-08-09T07:26:22.771Z,101339.91
2022-08-09T07:29:08.822Z,101334.69
2022-08-09T07:31:38.449Z,101341.13
2022-08-09T07:34:19.556Z,101335.94
2022-08-09T07:36:50.237Z,101338.50
2022-08-09T07:39:40.302Z,101335.88
2022-08-09T07:42:06.534Z,101344.94
2022-08-09T07:44:33.030Z,101336.88
2022-08-09T07:47:18.801Z,101336.28
2022-08-09T07:49:52.220Z,101338.44
2022-08-09T07:52:31.986Z,101332.59
2022-08-09T07:54:58.268Z,101330.88
2022-08-09T07:57:33.804Z,101336.63
2022-08-09T08:00:02.906Z,101342.53
2022-08-09T08:02:30.302Z,101333.88
2022-08-09T08:04:56.509Z,101339.34
2022-08-09T08:09:00.213Z,101335.09
2022-08-09T08:10:11.314Z,101344.13
2022-08-09T08:12:42.666Z,101344.09
2022-08-09T08:15:10.084Z,101344.78
2022-08-09T08:17:53.924Z,101348.38
2022-08-09T08:20:29.491Z,101352.63
2022-08-09T08:23:01.299Z,101340.91
2022-08-09T08:25:40.424Z,101346.25
2022-08-09T08:28:14.920Z,101338.13
2022-08-09T08:30:41.513Z,101342.00
2022-08-09T08:33:07.678Z,101342.38
2022-08-09T08:35:58.213Z,101343.06
2022-08-09T08:38:24.438Z,101342.31
2022-08-09T08:40:52.818Z,101336.25
2022-08-09T08:43:18.972Z,101338.78
2022-08-09T08:45:51.624Z,101331.06
2022-08-09T08:48:29.214Z,101342.88
2022-08-09T08:50:57.367Z,101344.13
2022-08-09T08:53:24.933Z,101330.47
2022-08-09T08:56:01.892Z,101336.03
2022-08-09T08:58:28.908Z,101332.53
2022-08-09T09:00:56.938Z,101334.38
2022-08-09T09:03:33.287Z,101336.72
2022-08-09T09:06:04.737Z,101337.25
2022-08-09T09:08:32.074Z,101342.06
2022-08-09T09:11:04.419Z,101336.19
2022-08-09T09:13:41.560Z,101345.75
2022-08-09T09:16:13.650Z,101336.69
2022-08-09T09:18:43.342Z,101336.69
2022-08-09T09:21:14.399Z,101333.19
2022-08-09T09:23:40.596Z,101328.81
2022-08-09T09:26:16.249Z,101320.34
2022-08-09T09:29:04.347Z,101324.22
2022-08-09T09:32:01.784Z,101324.19
2022-08-09T09:34:18.332Z,101315.13
2022-08-09T09:36:51.017Z,101318.44
2022-08-09T09:39:20.141Z,101303.75
2022-08-09T09:41:49.844Z,101306.75
2022-08-09T09:44:25.829Z,101305.16
2022-08-09T09:46:53.895Z,101294.72
2022-08-09T09:49:31.726Z,101291.53
2022-08-09T09:52:07.075Z,101303.50
2022-08-09T09:54:55.216Z,101298.59
2022-08-09T09:58:03.949Z,101292.69
2022-08-09T10:00:08.271Z,101291.06
2022-08-09T10:02:37.976Z,101292.97
2022-08-09T10:05:06.719Z,101289.31
2022-08-09T10:07:33.066Z,101288.84
2022-08-09T10:09:59.433Z,101282.31
2022-08-09T10:12:29.706Z,101285.59
2022-08-09T10:14:57.737Z,101293.53
2022-08-09T10:17:55.034Z,101290.47
2022-08-09T10:20:15.047Z,101278.00
2022-08-09T10:22:41.759Z,101292.00
2022-08-09T10:25:11.619Z,101273.72
2022-08-09T10:27:45.045Z,101271.22
2022-08-09T10:33:08.878Z,101269.50
2022-08-09T10:35:55.029Z,101264.56
2022-08-09T10:38:43.225Z,101265.69
2022-08-09T10:41:07.365Z,101273.44
2022-08-09T10:43:36.156Z,101270.38
2022-08-09T10:46:19.187Z,101262.09
2022-08-09T10:48:52.372Z,101254.59
2022-08-09T10:51:18.634Z,101256.81
2022-08-09T10:53:46.796Z,101259.16
2022-08-09T10:56:13.153Z,101251.59
2022-08-09T10:58:43.826Z,101248.56
2022-08-09T11:03:10.659Z,101256.81
2022-08-09T11:04:04.053Z,101253.22
2022-08-09T11:06:32.506Z,101254.69
2022-08-09T11:09:15.538Z,101259.50
2022-08-09T11:11:43.540Z,101259.47
2022-08-09T11:14:17.925Z,101255.72
2022-08-09T11:16:54.563Z,101267.81
2022-08-09T11:19:20.924Z,101259.53
2022-08-09T11:22:18.831Z,101254.50
2022-08-09T11:24:50.777Z,101259.97
2022-08-09T11:27:16.948Z,101263.34
2022-08-09T11:30:05.783Z,101256.97
2022-08-09T11:32:56.719Z,101251.72
2022-08-09T11:35:34.731Z,101250.53
2022-08-09T11:40:54.714Z,101250.72
2022-08-09T11:43:21.199Z,101256.72
2022-08-09T11:45:47.483Z,101254.56
2022-08-09T11:48:25.040Z,101245.41
2022-08-09T11:52:49.584Z,101251.59
2022-08-09T11:53:59.095Z,101246.03
2022-08-09T11:56:41.945Z,101235.94
2022-08-09T11:59:08.355Z,101229.56
2022-08-09T12:02:00.913Z,101229.56
2022-08-09T12:04:28.826Z,101227.31
2022-08-09T12:06:58.747Z,101236.25
2022-08-09T12:09:24.945Z,101216.16
2022-08-09T12:12:02.938Z,101223.97
2022-08-09T12:14:40.987Z,101222.00
2022-08-09T12:17:23.342Z,101226.41
2022-08-09T12:19:59.826Z,101217.59
2022-08-09T12:22:26.221Z,101223.72
2022-08-09T12:24:52.397Z,101220.00
2022-08-09T12:29:14.243Z,101211.75
2022-08-09T12:30:36.903Z,101212.06
2022-08-09T12:32:51.455Z,101213.44
2022-08-09T12:35:19.336Z,101213.34
2022-08-09T12:37:51.707Z,101211.47
2022-08-09T12:40:18.891Z,101214.00
2022-08-09T12:42:45.293Z,101215.84
2022-08-09T12:45:34.931Z,101199.22
2022-08-09T12:47:58.412Z,101202.28
2022-08-09T12:50:25.247Z,101200.38
2022-08-09T12:53:07.987Z,101202.50
2022-08-09T12:56:13.681Z,101206.09
2022-08-09T12:58:24.432Z,101194.97
2022-08-09T13:00:54.348Z,101197.34
2022-08-09T13:03:28.336Z,101191.28
2022-08-09T13:06:14.616Z,101183.31
2022-08-09T13:08:43.624Z,101189.94
2022-08-09T13:11:26.227Z,101184.34
2022-08-09T13:14:41.587Z,101177.81
2022-08-09T13:16:38.755Z,101174.06
2022-08-09T13:19:11.234Z,101178.56
2022-08-09T13:22:36.844Z,101167.06
2022-08-09T13:24:53.454Z,101169.19
2022-08-09T13:27:09.841Z,101162.25
2022-08-09T13:30:02.484Z,101160.69
2022-08-09T13:32:26.431Z,101159.00
2022-08-09T13:34:54.985Z,101164.56
2022-08-09T13:37:50.737Z,101158.56
2022-08-09T13:41:51.051Z,101161.09
2022-08-09T13:42:53.545Z,101167.91
2022-08-09T13:45:19.942Z,101153.34
2022-08-09T13:47:51.295Z,101158.91
2022-08-09T13:50:31.315Z,101150.44
2022-08-09T13:52:58.083Z,101157.66
2022-08-09T13:55:24.209Z,101144.47
2022-08-09T13:57:59.328Z,101138.94
2022-08-09T14:00:28.439Z,101137.28
2022-08-09T14:03:04.200Z,101144.06
2022-08-09T14:05:57.299Z,101148.56
2022-08-09T14:08:26.891Z,101146.72
2022-08-09T14:10:53.603Z,101149.56
2022-08-09T14:13:27.754Z,101149.34
2022-08-09T14:16:07.024Z,101145.88
2022-08-09T14:18:36.937Z,101145.25
2022-08-09T14:21:03.094Z,101138.19
2022-08-09T14:23:53.824Z,101140.31
2022-08-09T14:26:18.289Z,101145.09
2022-08-09T14:28:44.928Z,101143.03
2022-08-09T14:31:11.121Z,101141.63
2022-08-09T14:33:38.047Z,101131.47
2022-08-09T14:36:20.378Z,101125.63
2022-08-09T14:38:47.088Z,101118.41
2022-08-09T14:41:26.720Z,101129.19
2022-08-09T14:44:05.337Z,101119.25
2022-08-09T14:46:54.603Z,101123.72
2022-08-09T14:49:19.283Z,101122.84
2022-08-09T14:51:49.969Z,101119.78
2022-08-09T14:54:16.318Z,101111.88
2022-08-09T14:56:57.870Z,101117.97
2022-08-09T14:59:24.989Z,101117.81
2022-08-09T15:01:53.310Z,101123.31
2022-08-09T15:04:19.794Z,101108.50
2022-08-09T15:06:49.928Z,101117.91
2022-08-09T15:10:03.988Z,101111.97
2022-08-09T15:12:03.863Z,101113.06
2022-08-09T15:14:34.043Z,101111.00
2022-08-09T15:17:00.514Z,101114.72
2022-08-09T15:19:31.025Z,101110.28
2022-08-09T15:22:02.849Z,101107.28
2022-08-09T15:24:29.255Z,101103.19
2022-08-09T15:26:55.455Z,101104.75
2022-08-09T15:30:58.488Z,101107.09
2022-08-09T15:32:29.874Z,101111.97
2022-08-09T15:34:53.980Z,101104.88
2022-08-09T15:37:20.249Z,101100.47
2022-08-09T15:39:53.343Z,101097.97
2022-08-09T15:42:21.897Z,101108.81
2022-08-09T15:44:48.204Z,101092.44
2022-08-09T15:47:21.651Z,101099.91
2022-08-09T15:50:03.768Z,101089.59
2022-08-09T15:52:31.626Z,101097.75
2022-08-09T15:54:58.019Z,101090.38
2022-08-09T15:57:35.799Z,101090.31
2022-08-09T16:00:13.800Z,101097.47
2022-08-09T16:02:40.837Z,101101.56
2022-08-09T16:05:07.111Z,101107.63
2022-08-09T16:07:39.305Z,101097.44
2022-08-09T16:10:05.849Z,101092.41
2022-08-09T16:12:37.642Z,101101.22
2022-08-09T16:16:10.350Z,101097.50
2022-08-09T16:18:02.708Z,101092.88
2022-08-09T16:20:30.358Z,101088.78
2022-08-09T16:22:56.704Z,101081.56
2022-08-09T16:25:39.709Z,101093.47
2022-08-09T16:28:06.948Z,101086.63
2022-08-09T16:30:33.137Z,101086.63
2022-08-09T16:32:59.317Z,101094.13
2022-08-09T16:35:57.529Z,101089.34
2022-08-09T16:38:14.004Z,101094.56
2022-08-09T16:40:51.318Z,101072.28
2022-08-09T16:43:21.175Z,101094.69
2022-08-09T16:45:59.502Z,101097.19
2022-08-09T16:48:41.795Z,101094.38
2022-08-09T16:51:14.741Z,101082.88
2022-08-09T16:53:56.227Z,101089.50
2022-08-09T16:56:27.072Z,101090.00
2022-08-09T16:58:57.196Z,101086.44
2022-08-09T17:01:24.921Z,101091.19
2022-08-09T17:03:51.292Z,101095.88
2022-08-09T17:06:28.960Z,101092.81
2022-08-09T17:09:10.668Z,101099.56
2022-08-09T17:11:43.774Z,101095.06
2022-08-09T17:14:25.902Z,101097.75
2022-08-09T17:16:54.384Z,101096.38
2022-08-09T17:19:21.113Z,101099.28
2022-08-09T17:21:47.326Z,101093.94
2022-08-09T17:24:28.149Z,101097.22
2022-08-09T17:26:56.926Z,101097.50
2022-08-09T17:29:24.534Z,101104.78
2022-08-09T17:31:57.679Z,101099.41
2022-08-09T17:35:07.859Z,101099.75
2022-08-09T17:37:19.212Z,101105.59
2022-08-09T17:39:52.096Z,101104.69
2022-08-09T17:42:40.863Z,101105.78
2022-08-09T17:45:06.518Z,101105.13
2022-08-09T17:47:49.516Z,101108.38
2022-08-09T17:50:36.754Z,101106.88
2022-08-09T17:53:19.329Z,101109.28
2022-08-09T17:55:55.731Z,101117.56
2022-08-09T18:01:15.597Z,101116.81
2022-08-09T18:03:54.649Z,101121.56
2022-08-09T18:06:30.693Z,101122.72
2022-08-09T18:08:57.755Z,101126.13
2022-08-09T18:11:24.099Z,101125.97
2022-08-09T18:13:58.946Z,101127.13
2022-08-09T18:16:30.648Z,101125.03
2022-08-09T18:19:03.836Z,101121.00
2022-08-09T18:21:50.407Z,101128.81
2022-08-09T18:24:19.014Z,101131.03
2022-08-09T18:26:49.572Z,101125.97
2022-08-09T18:30:42.195Z,101123.97
2022-08-09T18:32:02.810Z,101131.34
2022-08-09T18:34:31.807Z,101127.69
2022-08-09T18:36:58.172Z,101131.56
2022-08-09T18:39:32.308Z,101138.28
2022-08-09T18:42:01.367Z,101131.91
2022-08-09T18:44:32.256Z,101138.00
2022-08-09T18:47:14.271Z,101138.53
2022-08-09T18:49:52.099Z,101145.25
2022-08-09T18:52:18.804Z,101141.38
2022-08-09T18:54:52.581Z,101146.44
2022-08-09T18:57:19.672Z,101148.44
2022-08-09T18:59:48.898Z,101157.31
2022-08-09T19:02:18.372Z,101154.78
2022-08-09T19:04:47.847Z,101165.25
2022-08-09T19:07:34.315Z,101163.50
2022-08-09T19:10:17.110Z,101174.09
2022-08-09T19:12:50.576Z,101173.63
2022-08-09T19:15:19.163Z,101169.88
2022-08-09T19:17:56.531Z,101169.78
2022-08-09T19:20:24.903Z,101175.28
2022-08-09T19:22:54.474Z,101176.84
2022-08-09T19:25:42.603Z,101170.97
2022-08-09T19:28:07.369Z,101176.00
2022-08-09T19:30:33.532Z,101178.66
2022-08-09T19:33:01.717Z,101178.06
2022-08-09T19:35:28.984Z,101183.81
2022-08-09T19:38:15.158Z,101179.22
2022-08-09T19:40:42.626Z,101180.84
2022-08-09T19:43:57.723Z,101178.31
2022-08-09T19:45:57.883Z,101182.53
2022-08-09T19:49:01.640Z,101182.31
2022-08-09T19:51:10.373Z,101185.09
2022-08-09T19:53:45.560Z,101187.16
2022-08-09T19:56:15.557Z,101193.53
2022-08-09T19:58:41.983Z,101196.28
2022-08-09T20:01:22.856Z,101196.78
2022-08-09T20:04:18.172Z,101194.09
2022-08-09T20:06:35.859Z,101195.25
2022-08-09T20:09:04.289Z,101192.78
2022-08-09T20:11:43.166Z,101196.31
2022-08-09T20:14:15.316Z,101195.88
2022-08-09T20:16:54.395Z,101200.31
2022-08-09T20:19:48.424Z,101191.91
2022-08-09T20:22:10.057Z,101186.72
2022-08-09T20:24:40.926Z,101185.78
2022-08-09T20:27:08.834Z,101190.28
2022-08-09T20:29:37.195Z,101186.47
2022-08-09T20:32:29.161Z,101186.31
2022-08-09T20:34:50.657Z,101192.91
2022-08-09T20:37:21.430Z,101189.69
2022-08-09T20:40:15.784Z,101192.06
2022-08-09T20:42:35.250Z,101192.78
2022-08-09T20:45:57.745Z,101195.00
2022-08-09T20:47:50.391Z,101193.88
2022-08-09T20:50:47.991Z,101194.34
2022-08-09T20:53:04.989Z,101198.34
2022-08-09T20:55:47.226Z,101195.53
2022-08-09T20:58:27.429Z,101188.94
2022-08-09T21:01:14.325Z,101199.13
2022-08-09T21:05:49.223Z,101200.00
2022-08-09T21:06:31.712Z,101203.53
2022-08-09T21:08:57.872Z,101198.88
2022-08-09T21:14:10.991Z,101202.78
2022-08-09T21:16:38.077Z,101201.22
2022-08-09T21:20:16.090Z,101207.13
2022-08-09T21:21:57.548Z,101201.91
2022-08-09T21:24:28.902Z,101195.75
2022-08-09T21:26:58.819Z,101195.75
2022-08-09T21:29:25.013Z,101196.31
2022-08-09T21:31:51.173Z,101193.03
2022-08-09T21:34:28.822Z,101198.50
2022-08-09T21:36:56.561Z,101196.94
2022-08-09T21:39:27.974Z,101199.91
2022-08-09T21:42:03.660Z,101201.88
2022-08-09T21:44:32.794Z,101195.25
2022-08-09T21:47:01.775Z,101196.16
2022-08-09T21:49:28.100Z,101199.28
2022-08-09T21:51:54.248Z,101202.25
2022-08-09T21:54:20.782Z,101203.53
2022-08-09T21:56:54.230Z,101198.84
2022-08-09T21:59:23.154Z,101204.06
2022-08-09T22:02:00.490Z,101208.25
2022-08-09T22:04:37.515Z,101207.78
2022-08-09T22:07:14.336Z,101210.47
2022-08-09T22:09:49.690Z,101203.06
2022-08-09T22:12:18.728Z,101212.09
2022-08-09T22:14:50.828Z,101204.94
2022-08-09T22:17:17.028Z,101205.78
2022-08-09T22:19:59.856Z,101204.22
2022-08-09T22:22:26.772Z,101201.44
2022-08-09T22:26:04.273Z,101206.06
2022-08-09T22:27:39.628Z,101206.22
2022-08-09T22:30:06.691Z,101205.38
2022-08-09T22:32:33.782Z,101210.44
2022-08-09T22:35:06.454Z,101205.78
2022-08-09T22:37:46.233Z,101213.78
2022-08-09T22:40:18.192Z,101204.97
2022-08-09T22:42:46.481Z,101210.19
2022-08-09T22:48:12.120Z,101203.03
2022-08-09T22:48:35.678Z,101211.50
2022-08-09T22:50:52.954Z,101200.38
2022-08-09T22:53:19.526Z,101208.38
2022-08-09T22:56:29.335Z,101210.66
2022-08-09T22:58:33.548Z,101214.69
2022-08-09T23:01:01.028Z,101213.13
2022-08-09T23:04:02.604Z,101213.56
2022-08-09T23:06:14.524Z,101214.03
2022-08-09T23:08:58.936Z,101216.59
2022-08-09T23:11:25.117Z,101216.59
2022-08-09T23:13:51.279Z,101213.34
2022-08-09T23:16:17.431Z,101215.88
2022-08-09T23:18:43.626Z,101221.78
2022-08-09T23:21:09.766Z,101215.06
2022-08-09T23:23:36.326Z,101215.91
2022-08-09T23:26:02.511Z,101216.72
2022-08-09T23:28:31.741Z,101213.91
2022-08-09T23:30:57.948Z,101212.84
2022-08-09T23:33:24.117Z,101208.91
2022-08-09T23:36:06.255Z,101206.38
2022-08-09T23:38:33.623Z,101210.47
2022-08-09T23:41:00.900Z,101212.28
2022-08-09T23:43:27.046Z,101210.59
2022-08-09T23:45:53.223Z,101211.72
2022-08-09T23:48:19.393Z,101218.06
2022-08-09T23:50:45.577Z,101219.59
2022-08-09T23:53:11.747Z,101209.66
2022-08-09T23:55:38.674Z,101214.41
2022-08-09T23:58:08.561Z,101220.16
